sensor_id;sensor_type;location;lat;lon;timestamp;temperature;humidity
16283;DHT22;8249;48.708;9.030;2024-03-29T00:02:10;7.20;99.90
16283;DHT22;8249;48.708;9.030;2024-03-29T00:04:35;7.20;99.90
16283;DHT22;8249;48.708;9.030;2024-03-29T00:07:01;7.20;99.90
16283;DHT22;8249;48.708;9.030;2024-03-29T00:09:29;7.10;99.90
16283;DHT22;8249;48.708;9.030;2024-03-29T00:11:55;7.10;99.90
16283;DHT22;8249;48.708;9.030;2024-03-29T00:14:21;7.10;99.90
16283;DHT22;8249;48.708;9.030;2024-03-29T00:16:46;7.10;99.90
16283;DHT22;8249;48.708;9.030;2024-03-29T00:19:12;7.00;99.90
16283;DHT22;8249;48.708;9.030;2024-03-29T00:21:38;6.90;99.90
16283;DHT22;8249;48.708;9.030;2024-03-29T00:24:04;7.00;99.90
16283;DHT22;8249;48.708;9.030;2024-03-29T00:26:32;7.00;99.90
16283;DHT22;8249;48.708;9.030;2024-03-29T00:28:58;7.00;99.90
16283;DHT22;8249;48.708;9.030;2024-03-29T00:31:24;6.90;99.90
16283;DHT22;8249;48.708;9.030;2024-03-29T00:33:50;6.90;99.90
16283;DHT22;8249;48.708;9.030;2024-03-29T00:36:16;6.90;99.90
16283;DHT22;8249;48.708;9.030;2024-03-29T00:38:41;6.90;99.90
16283;DHT22;8249;48.708;9.030;2024-03-29T00:41:07;6.90;99.90
16283;DHT22;8249;48.708;9.030;2024-03-29T00:43:35;6.90;99.90
16283;DHT22;8249;48.708;9.030;2024-03-29T00:46:01;6.90;99.90
16283;DHT22;8249;48.708;9.030;2024-03-29T00:48:27;6.90;99.90
16283;DHT22;8249;48.708;9.030;2024-03-29T00:50:53;6.90;99.90
16283;DHT22;8249;48.708;9.030;2024-03-29T00:53:19;6.80;99.90
16283;DHT22;8249;48.708;9.030;2024-03-29T00:55:44;7.00;99.90
16283;DHT22;8249;48.708;9.030;2024-03-29T00:58:11;6.80;99.90
16283;DHT22;8249;48.708;9.030;2024-03-29T01:00:38;6.90;99.90
16283;DHT22;8249;48.708;9.030;2024-03-29T01:03:04;6.90;99.90
16283;DHT22;8249;48.708;9.030;2024-03-29T01:05:30;7.00;99.90
16283;DHT22;8249;48.708;9.030;2024-03-29T01:07:56;7.10;99.90
16283;DHT22;8249;48.708;9.030;2024-03-29T01:10:22;7.10;99.90
16283;DHT22;8249;48.708;9.030;2024-03-29T01:12:48;7.10;99.90
16283;DHT22;8249;48.708;9.030;2024-03-29T01:15:14;7.10;99.90
16283;DHT22;8249;48.708;9.030;2024-03-29T01:17:41;7.10;99.90
16283;DHT22;8249;48.708;9.030;2024-03-29T01:20:08;7.10;99.90
16283;DHT22;8249;48.708;9.030;2024-03-29T01:22:34;7.00;99.90
16283;DHT22;8249;48.708;9.030;2024-03-29T01:25:00;7.00;99.90
16283;DHT22;8249;48.708;9.030;2024-03-29T01:27:26;7.00;99.90
16283;DHT22;8249;48.708;9.030;2024-03-29T01:29:52;7.00;99.90
16283;DHT22;8249;48.708;9.030;2024-03-29T01:32:18;7.00;99.90
16283;DHT22;8249;48.708;9.030;2024-03-29T01:34:45;7.00;99.90
16283;DHT22;8249;48.708;9.030;2024-03-29T01:37:11;7.00;99.90
16283;DHT22;8249;48.708;9.030;2024-03-29T01:39:37;7.00;99.90
16283;DHT22;8249;48.708;9.030;2024-03-29T01:42:03;7.00;99.90
16283;DHT22;8249;48.708;9.030;2024-03-29T01:44:29;7.00;99.90
16283;DHT22;8249;48.708;9.030;2024-03-29T01:46:56;7.00;99.90
16283;DHT22;8249;48.708;9.030;2024-03-29T01:49:23;7.00;99.90
16283;DHT22;8249;48.708;9.030;2024-03-29T01:51:51;7.10;99.90
16283;DHT22;8249;48.708;9.030;2024-03-29T01:54:18;7.10;99.90
16283;DHT22;8249;48.708;9.030;2024-03-29T01:56:46;7.10;99.90
16283;DHT22;8249;48.708;9.030;2024-03-29T01:59:16;7.10;99.90
16283;DHT22;8249;48.708;9.030;2024-03-29T02:01:45;7.20;99.90
16283;DHT22;8249;48.708;9.030;2024-03-29T02:04:12;7.20;99.90
16283;DHT22;8249;48.708;9.030;2024-03-29T02:06:39;7.20;99.90
16283;DHT22;8249;48.708;9.030;2024-03-29T02:09:07;7.20;99.90
16283;DHT22;8249;48.708;9.030;2024-03-29T02:11:33;7.20;99.90
16283;DHT22;8249;48.708;9.030;2024-03-29T02:14:00;7.20;99.90
16283;DHT22;8249;48.708;9.030;2024-03-29T02:16:26;7.20;99.90
16283;DHT22;8249;48.708;9.030;2024-03-29T02:18:53;7.20;99.90
16283;DHT22;8249;48.708;9.030;2024-03-29T02:21:20;7.20;99.90
16283;DHT22;8249;48.708;9.030;2024-03-29T02:23:55;7.20;99.90
16283;DHT22;8249;48.708;9.030;2024-03-29T02:26:22;7.20;99.90
16283;DHT22;8249;48.708;9.030;2024-03-29T02:28:51;7.30;99.90
16283;DHT22;8249;48.708;9.030;2024-03-29T02:31:18;7.20;99.90
16283;DHT22;8249;48.708;9.030;2024-03-29T02:33:45;7.20;99.90
16283;DHT22;8249;48.708;9.030;2024-03-29T02:36:11;7.20;99.90
16283;DHT22;8249;48.708;9.030;2024-03-29T02:38:39;7.20;99.90
16283;DHT22;8249;48.708;9.030;2024-03-29T02:41:07;7.20;99.90
16283;DHT22;8249;48.708;9.030;2024-03-29T02:43:34;7.20;99.90
16283;DHT22;8249;48.708;9.030;2024-03-29T02:46:02;7.20;99.90
16283;DHT22;8249;48.708;9.030;2024-03-29T02:48:29;7.20;99.90
16283;DHT22;8249;48.708;9.030;2024-03-29T02:50:55;7.20;99.90
16283;DHT22;8249;48.708;9.030;2024-03-29T02:53:22;7.20;99.90
16283;DHT22;8249;48.708;9.030;2024-03-29T02:55:47;7.20;99.90
16283;DHT22;8249;48.708;9.030;2024-03-29T02:58:16;7.20;99.90
16283;DHT22;8249;48.708;9.030;2024-03-29T03:00:42;7.10;99.90
16283;DHT22;8249;48.708;9.030;2024-03-29T03:03:09;7.00;99.90
16283;DHT22;8249;48.708;9.030;2024-03-29T03:05:35;7.10;99.90
16283;DHT22;8249;48.708;9.030;2024-03-29T03:08:02;7.20;99.90
16283;DHT22;8249;48.708;9.030;2024-03-29T03:10:46;7.10;99.90
16283;DHT22;8249;48.708;9.030;2024-03-29T03:13:29;7.10;99.90
16283;DHT22;8249;48.708;9.030;2024-03-29T03:15:56;7.10;99.90
16283;DHT22;8249;48.708;9.030;2024-03-29T03:18:23;7.00;99.90
16283;DHT22;8249;48.708;9.030;2024-03-29T03:20:52;7.00;99.90
16283;DHT22;8249;48.708;9.030;2024-03-29T03:23:20;6.90;99.90
16283;DHT22;8249;48.708;9.030;2024-03-29T03:25:46;6.90;99.90
16283;DHT22;8249;48.708;9.030;2024-03-29T03:28:13;6.80;99.90
16283;DHT22;8249;48.708;9.030;2024-03-29T03:30:40;6.80;99.90
16283;DHT22;8249;48.708;9.030;2024-03-29T03:33:07;6.90;99.90
16283;DHT22;8249;48.708;9.030;2024-03-29T03:35:33;6.90;99.90
16283;DHT22;8249;48.708;9.030;2024-03-29T03:38:00;6.90;99.90
16283;DHT22;8249;48.708;9.030;2024-03-29T03:40:26;7.00;99.90
16283;DHT22;8249;48.708;9.030;2024-03-29T03:42:52;7.00;99.90
16283;DHT22;8249;48.708;9.030;2024-03-29T03:45:18;7.00;99.90
16283;DHT22;8249;48.708;9.030;2024-03-29T03:47:46;7.00;99.90
16283;DHT22;8249;48.708;9.030;2024-03-29T03:50:12;7.00;99.90
16283;DHT22;8249;48.708;9.030;2024-03-29T03:52:39;7.00;99.90
16283;DHT22;8249;48.708;9.030;2024-03-29T03:55:06;7.00;99.90
16283;DHT22;8249;48.708;9.030;2024-03-29T03:57:33;7.00;99.90
16283;DHT22;8249;48.708;9.030;2024-03-29T03:59:59;7.00;99.90
16283;DHT22;8249;48.708;9.030;2024-03-29T04:02:26;7.00;99.90
16283;DHT22;8249;48.708;9.030;2024-03-29T04:04:53;7.00;99.90
16283;DHT22;8249;48.708;9.030;2024-03-29T04:07:20;7.00;99.90
16283;DHT22;8249;48.708;9.030;2024-03-29T04:09:50;7.00;99.90
16283;DHT22;8249;48.708;9.030;2024-03-29T04:12:17;7.00;99.90
16283;DHT22;8249;48.708;9.030;2024-03-29T04:14:43;7.00;99.90
16283;DHT22;8249;48.708;9.030;2024-03-29T04:17:10;7.00;99.90
16283;DHT22;8249;48.708;9.030;2024-03-29T04:19:36;7.10;99.90
16283;DHT22;8249;48.708;9.030;2024-03-29T04:22:04;7.10;99.90
16283;DHT22;8249;48.708;9.030;2024-03-29T04:24:30;7.30;99.90
16283;DHT22;8249;48.708;9.030;2024-03-29T04:26:57;7.40;99.90
16283;DHT22;8249;48.708;9.030;2024-03-29T04:29:23;7.50;99.90
16283;DHT22;8249;48.708;9.030;2024-03-29T04:31:50;7.60;99.90
16283;DHT22;8249;48.708;9.030;2024-03-29T04:34:16;7.70;99.90
16283;DHT22;8249;48.708;9.030;2024-03-29T04:36:42;7.70;99.90
16283;DHT22;8249;48.708;9.030;2024-03-29T04:39:11;7.80;99.90
16283;DHT22;8249;48.708;9.030;2024-03-29T04:41:37;7.80;99.90
16283;DHT22;8249;48.708;9.030;2024-03-29T04:44:04;7.80;99.90
16283;DHT22;8249;48.708;9.030;2024-03-29T04:46:33;7.70;99.90
16283;DHT22;8249;48.708;9.030;2024-03-29T04:49:00;7.70;99.90
16283;DHT22;8249;48.708;9.030;2024-03-29T04:51:27;7.60;99.90
16283;DHT22;8249;48.708;9.030;2024-03-29T04:53:54;7.60;99.90
16283;DHT22;8249;48.708;9.030;2024-03-29T04:56:21;7.60;99.90
16283;DHT22;8249;48.708;9.030;2024-03-29T04:58:48;7.50;99.90
16283;DHT22;8249;48.708;9.030;2024-03-29T05:01:15;7.50;99.90
16283;DHT22;8249;48.708;9.030;2024-03-29T05:03:41;7.50;99.90
16283;DHT22;8249;48.708;9.030;2024-03-29T05:06:08;7.40;99.90
16283;DHT22;8249;48.708;9.030;2024-03-29T05:08:35;7.40;99.90
16283;DHT22;8249;48.708;9.030;2024-03-29T05:11:03;7.40;99.90
16283;DHT22;8249;48.708;9.030;2024-03-29T05:13:31;7.40;99.90
16283;DHT22;8249;48.708;9.030;2024-03-29T05:15:58;7.40;99.90
16283;DHT22;8249;48.708;9.030;2024-03-29T05:18:24;7.40;99.90
16283;DHT22;8249;48.708;9.030;2024-03-29T05:20:51;7.30;99.90
16283;DHT22;8249;48.708;9.030;2024-03-29T05:23:18;7.30;99.90
16283;DHT22;8249;48.708;9.030;2024-03-29T05:25:45;7.30;99.90
16283;DHT22;8249;48.708;9.030;2024-03-29T05:28:14;7.30;99.90
16283;DHT22;8249;48.708;9.030;2024-03-29T05:30:43;7.30;99.90
16283;DHT22;8249;48.708;9.030;2024-03-29T05:33:09;7.30;99.90
16283;DHT22;8249;48.708;9.030;2024-03-29T05:35:36;7.30;99.90
16283;DHT22;8249;48.708;9.030;2024-03-29T05:38:03;7.30;99.90
16283;DHT22;8249;48.708;9.030;2024-03-29T05:40:30;7.20;99.90
16283;DHT22;8249;48.708;9.030;2024-03-29T05:42:57;7.20;99.90
16283;DHT22;8249;48.708;9.030;2024-03-29T05:45:25;7.20;99.90
16283;DHT22;8249;48.708;9.030;2024-03-29T05:47:55;7.30;99.90
16283;DHT22;8249;48.708;9.030;2024-03-29T05:50:22;7.40;99.90
16283;DHT22;8249;48.708;9.030;2024-03-29T05:52:50;7.50;99.90
16283;DHT22;8249;48.708;9.030;2024-03-29T05:55:17;7.50;99.90
16283;DHT22;8249;48.708;9.030;2024-03-29T05:57:44;7.60;99.90
16283;DHT22;8249;48.708;9.030;2024-03-29T06:00:12;7.60;99.90
16283;DHT22;8249;48.708;9.030;2024-03-29T06:02:41;7.70;99.90
16283;DHT22;8249;48.708;9.030;2024-03-29T06:05:11;7.70;99.90
16283;DHT22;8249;48.708;9.030;2024-03-29T06:07:38;7.90;99.90
16283;DHT22;8249;48.708;9.030;2024-03-29T06:10:06;8.00;99.90
16283;DHT22;8249;48.708;9.030;2024-03-29T06:12:34;8.10;99.90
16283;DHT22;8249;48.708;9.030;2024-03-29T06:15:01;8.20;99.90
16283;DHT22;8249;48.708;9.030;2024-03-29T06:17:45;8.30;99.90
16283;DHT22;8249;48.708;9.030;2024-03-29T06:20:14;8.50;99.90
16283;DHT22;8249;48.708;9.030;2024-03-29T06:22:41;8.50;99.90
16283;DHT22;8249;48.708;9.030;2024-03-29T06:25:08;8.60;99.90
16283;DHT22;8249;48.708;9.030;2024-03-29T06:27:36;8.60;99.90
16283;DHT22;8249;48.708;9.030;2024-03-29T06:30:05;8.60;99.90
16283;DHT22;8249;48.708;9.030;2024-03-29T06:32:33;8.60;99.90
16283;DHT22;8249;48.708;9.030;2024-03-29T06:35:00;8.80;99.90
16283;DHT22;8249;48.708;9.030;2024-03-29T06:37:28;8.70;99.90
16283;DHT22;8249;48.708;9.030;2024-03-29T06:39:55;8.80;99.90
16283;DHT22;8249;48.708;9.030;2024-03-29T06:42:22;8.90;99.90
16283;DHT22;8249;48.708;9.030;2024-03-29T06:44:49;9.00;99.90
16283;DHT22;8249;48.708;9.030;2024-03-29T06:47:16;9.00;99.90
16283;DHT22;8249;48.708;9.030;2024-03-29T06:49:43;9.00;99.90
16283;DHT22;8249;48.708;9.030;2024-03-29T06:52:09;9.00;99.90
16283;DHT22;8249;48.708;9.030;2024-03-29T06:54:38;9.10;99.90
16283;DHT22;8249;48.708;9.030;2024-03-29T06:57:05;9.10;99.90
16283;DHT22;8249;48.708;9.030;2024-03-29T06:59:31;9.00;99.90
16283;DHT22;8249;48.708;9.030;2024-03-29T07:01:58;9.10;99.90
16283;DHT22;8249;48.708;9.030;2024-03-29T07:04:25;9.10;99.90
16283;DHT22;8249;48.708;9.030;2024-03-29T07:06:53;9.10;99.90
16283;DHT22;8249;48.708;9.030;2024-03-29T07:09:21;9.20;99.90
16283;DHT22;8249;48.708;9.030;2024-03-29T07:11:51;9.10;99.90
16283;DHT22;8249;48.708;9.030;2024-03-29T07:14:18;9.20;99.90
16283;DHT22;8249;48.708;9.030;2024-03-29T07:16:46;9.10;99.90
16283;DHT22;8249;48.708;9.030;2024-03-29T07:19:13;9.10;99.90
16283;DHT22;8249;48.708;9.030;2024-03-29T07:21:42;9.00;99.90
16283;DHT22;8249;48.708;9.030;2024-03-29T07:24:08;9.00;99.90
16283;DHT22;8249;48.708;9.030;2024-03-29T07:26:35;8.90;99.90
16283;DHT22;8249;48.708;9.030;2024-03-29T07:29:05;8.90;99.90
16283;DHT22;8249;48.708;9.030;2024-03-29T07:31:32;8.80;99.90
16283;DHT22;8249;48.708;9.030;2024-03-29T07:33:59;8.70;99.90
16283;DHT22;8249;48.708;9.030;2024-03-29T07:36:26;8.60;99.90
16283;DHT22;8249;48.708;9.030;2024-03-29T07:38:57;8.40;99.90
16283;DHT22;8249;48.708;9.030;2024-03-29T07:41:24;8.40;99.90
16283;DHT22;8249;48.708;9.030;2024-03-29T07:43:52;8.30;99.90
16283;DHT22;8249;48.708;9.030;2024-03-29T07:46:21;8.20;99.90
16283;DHT22;8249;48.708;9.030;2024-03-29T07:48:48;8.10;99.90
16283;DHT22;8249;48.708;9.030;2024-03-29T07:51:15;8.10;99.90
16283;DHT22;8249;48.708;9.030;2024-03-29T07:53:42;8.10;99.90
16283;DHT22;8249;48.708;9.030;2024-03-29T07:56:09;8.00;99.90
16283;DHT22;8249;48.708;9.030;2024-03-29T07:58:35;8.00;99.90
16283;DHT22;8249;48.708;9.030;2024-03-29T08:01:02;8.00;99.90
16283;DHT22;8249;48.708;9.030;2024-03-29T08:03:30;8.20;99.90
16283;DHT22;8249;48.708;9.030;2024-03-29T08:06:00;8.20;99.90
16283;DHT22;8249;48.708;9.030;2024-03-29T08:08:30;8.30;99.90
16283;DHT22;8249;48.708;9.030;2024-03-29T08:10:57;8.40;99.90
16283;DHT22;8249;48.708;9.030;2024-03-29T08:13:24;8.50;99.90
16283;DHT22;8249;48.708;9.030;2024-03-29T08:15:57;8.50;99.90
16283;DHT22;8249;48.708;9.030;2024-03-29T08:18:25;8.60;99.90
16283;DHT22;8249;48.708;9.030;2024-03-29T08:20:53;8.60;99.90
16283;DHT22;8249;48.708;9.030;2024-03-29T08:23:21;8.70;99.90
16283;DHT22;8249;48.708;9.030;2024-03-29T08:25:48;8.70;99.90
16283;DHT22;8249;48.708;9.030;2024-03-29T08:28:17;8.70;99.90
16283;DHT22;8249;48.708;9.030;2024-03-29T08:30:44;8.70;99.90
16283;DHT22;8249;48.708;9.030;2024-03-29T08:33:11;8.70;99.90
16283;DHT22;8249;48.708;9.030;2024-03-29T08:35:38;8.70;99.90
16283;DHT22;8249;48.708;9.030;2024-03-29T08:38:10;8.70;99.90
16283;DHT22;8249;48.708;9.030;2024-03-29T08:40:38;8.70;99.90
16283;DHT22;8249;48.708;9.030;2024-03-29T08:43:09;8.80;99.90
16283;DHT22;8249;48.708;9.030;2024-03-29T08:45:36;8.80;99.90
16283;DHT22;8249;48.708;9.030;2024-03-29T08:48:06;8.80;99.90
16283;DHT22;8249;48.708;9.030;2024-03-29T08:50:33;8.80;99.90
16283;DHT22;8249;48.708;9.030;2024-03-29T08:53:00;8.80;99.90
16283;DHT22;8249;48.708;9.030;2024-03-29T08:55:27;8.90;99.90
16283;DHT22;8249;48.708;9.030;2024-03-29T08:57:54;8.90;99.90
16283;DHT22;8249;48.708;9.030;2024-03-29T09:00:21;9.00;99.90
16283;DHT22;8249;48.708;9.030;2024-03-29T09:02:48;9.10;99.90
16283;DHT22;8249;48.708;9.030;2024-03-29T09:05:15;9.10;99.90
16283;DHT22;8249;48.708;9.030;2024-03-29T09:07:42;9.20;99.90
16283;DHT22;8249;48.708;9.030;2024-03-29T09:10:09;9.30;99.90
16283;DHT22;8249;48.708;9.030;2024-03-29T09:12:37;9.40;99.90
16283;DHT22;8249;48.708;9.030;2024-03-29T09:15:05;9.40;99.90
16283;DHT22;8249;48.708;9.030;2024-03-29T09:17:34;9.50;99.90
16283;DHT22;8249;48.708;9.030;2024-03-29T09:20:01;9.50;99.90
16283;DHT22;8249;48.708;9.030;2024-03-29T09:22:28;9.50;99.90
16283;DHT22;8249;48.708;9.030;2024-03-29T09:24:55;9.60;99.90
16283;DHT22;8249;48.708;9.030;2024-03-29T09:27:22;9.70;99.90
16283;DHT22;8249;48.708;9.030;2024-03-29T09:29:50;9.70;99.90
16283;DHT22;8249;48.708;9.030;2024-03-29T09:32:17;9.70;99.90
16283;DHT22;8249;48.708;9.030;2024-03-29T09:34:45;9.70;99.90
16283;DHT22;8249;48.708;9.030;2024-03-29T09:37:12;9.60;99.90
16283;DHT22;8249;48.708;9.030;2024-03-29T09:39:39;9.60;99.90
16283;DHT22;8249;48.708;9.030;2024-03-29T09:42:06;9.70;99.90
16283;DHT22;8249;48.708;9.030;2024-03-29T09:44:34;10.00;99.90
16283;DHT22;8249;48.708;9.030;2024-03-29T09:47:04;10.20;99.90
16283;DHT22;8249;48.708;9.030;2024-03-29T09:49:32;10.50;99.90
16283;DHT22;8249;48.708;9.030;2024-03-29T09:51:59;10.80;99.90
16283;DHT22;8249;48.708;9.030;2024-03-29T09:54:27;11.00;99.90
16283;DHT22;8249;48.708;9.030;2024-03-29T09:56:55;11.20;99.90
16283;DHT22;8249;48.708;9.030;2024-03-29T09:59:22;11.30;99.90
16283;DHT22;8249;48.708;9.030;2024-03-29T10:01:50;11.40;99.90
16283;DHT22;8249;48.708;9.030;2024-03-29T10:04:21;11.60;99.90
16283;DHT22;8249;48.708;9.030;2024-03-29T10:06:49;11.80;99.90
16283;DHT22;8249;48.708;9.030;2024-03-29T10:09:18;11.90;99.90
16283;DHT22;8249;48.708;9.030;2024-03-29T10:11:45;12.10;99.90
16283;DHT22;8249;48.708;9.030;2024-03-29T10:14:12;12.40;99.90
16283;DHT22;8249;48.708;9.030;2024-03-29T10:16:39;12.70;99.90
16283;DHT22;8249;48.708;9.030;2024-03-29T10:19:07;13.50;99.90
16283;DHT22;8249;48.708;9.030;2024-03-29T10:21:37;14.20;99.90
16283;DHT22;8249;48.708;9.030;2024-03-29T10:24:11;14.60;99.90
16283;DHT22;8249;48.708;9.030;2024-03-29T10:26:38;14.50;99.90
16283;DHT22;8249;48.708;9.030;2024-03-29T10:29:05;14.40;99.90
16283;DHT22;8249;48.708;9.030;2024-03-29T10:31:34;14.30;99.90
16283;DHT22;8249;48.708;9.030;2024-03-29T10:34:03;14.20;99.90
16283;DHT22;8249;48.708;9.030;2024-03-29T10:36:31;14.30;99.90
16283;DHT22;8249;48.708;9.030;2024-03-29T10:39:02;14.30;99.90
16283;DHT22;8249;48.708;9.030;2024-03-29T10:41:37;14.80;99.90
16283;DHT22;8249;48.708;9.030;2024-03-29T10:44:05;15.40;99.90
16283;DHT22;8249;48.708;9.030;2024-03-29T10:46:34;15.30;99.90
16283;DHT22;8249;48.708;9.030;2024-03-29T10:49:04;15.40;99.90
16283;DHT22;8249;48.708;9.030;2024-03-29T10:51:33;15.50;99.90
16283;DHT22;8249;48.708;9.030;2024-03-29T10:54:02;15.80;99.90
16283;DHT22;8249;48.708;9.030;2024-03-29T10:56:31;15.90;99.90
16283;DHT22;8249;48.708;9.030;2024-03-29T10:59:06;15.90;99.90
16283;DHT22;8249;48.708;9.030;2024-03-29T11:01:35;16.10;99.90
16283;DHT22;8249;48.708;9.030;2024-03-29T11:04:10;16.00;99.90
16283;DHT22;8249;48.708;9.030;2024-03-29T11:06:40;15.80;99.90
16283;DHT22;8249;48.708;9.030;2024-03-29T11:09:13;15.70;99.90
16283;DHT22;8249;48.708;9.030;2024-03-29T11:11:41;15.80;99.90
16283;DHT22;8249;48.708;9.030;2024-03-29T11:14:16;15.80;99.90
16283;DHT22;8249;48.708;9.030;2024-03-29T11:16:44;15.80;99.90
16283;DHT22;8249;48.708;9.030;2024-03-29T11:19:14;15.80;99.90
16283;DHT22;8249;48.708;9.030;2024-03-29T11:21:42;15.90;99.90
16283;DHT22;8249;48.708;9.030;2024-03-29T11:24:16;16.20;99.90
16283;DHT22;8249;48.708;9.030;2024-03-29T11:26:45;16.70;99.90
16283;DHT22;8249;48.708;9.030;2024-03-29T11:29:18;17.30;99.90
16283;DHT22;8249;48.708;9.030;2024-03-29T11:31:45;17.70;99.90
16283;DHT22;8249;48.708;9.030;2024-03-29T11:34:12;17.70;99.90
16283;DHT22;8249;48.708;9.030;2024-03-29T11:36:40;17.60;99.90
16283;DHT22;8249;48.708;9.030;2024-03-29T11:39:07;17.60;99.90
16283;DHT22;8249;48.708;9.030;2024-03-29T11:41:46;17.50;99.90
16283;DHT22;8249;48.708;9.030;2024-03-29T11:44:13;17.00;99.90
16283;DHT22;8249;48.708;9.030;2024-03-29T11:46:40;16.90;99.90
16283;DHT22;8249;48.708;9.030;2024-03-29T11:49:07;16.50;99.90
16283;DHT22;8249;48.708;9.030;2024-03-29T11:51:34;16.40;99.90
16283;DHT22;8249;48.708;9.030;2024-03-29T11:54:01;16.10;99.90
16283;DHT22;8249;48.708;9.030;2024-03-29T11:56:28;15.90;99.90
16283;DHT22;8249;48.708;9.030;2024-03-29T11:58:56;15.90;99.90
16283;DHT22;8249;48.708;9.030;2024-03-29T12:01:25;15.70;99.90
16283;DHT22;8249;48.708;9.030;2024-03-29T12:03:53;15.70;99.90
16283;DHT22;8249;48.708;9.030;2024-03-29T12:06:20;15.80;99.90
16283;DHT22;8249;48.708;9.030;2024-03-29T12:08:47;15.70;99.90
16283;DHT22;8249;48.708;9.030;2024-03-29T12:11:15;15.80;99.90
16283;DHT22;8249;48.708;9.030;2024-03-29T12:13:44;15.80;99.90
16283;DHT22;8249;48.708;9.030;2024-03-29T12:16:13;15.90;99.90
16283;DHT22;8249;48.708;9.030;2024-03-29T12:18:39;16.10;99.90
16283;DHT22;8249;48.708;9.030;2024-03-29T12:21:07;16.20;99.90
16283;DHT22;8249;48.708;9.030;2024-03-29T12:23:35;16.50;99.90
16283;DHT22;8249;48.708;9.030;2024-03-29T12:26:02;16.60;99.90
16283;DHT22;8249;48.708;9.030;2024-03-29T12:28:30;16.70;99.90
16283;DHT22;8249;48.708;9.030;2024-03-29T12:30:59;16.80;99.90
16283;DHT22;8249;48.708;9.030;2024-03-29T12:33:27;16.90;99.90
16283;DHT22;8249;48.708;9.030;2024-03-29T12:35:54;17.00;99.90
16283;DHT22;8249;48.708;9.030;2024-03-29T12:38:21;17.20;99.90
16283;DHT22;8249;48.708;9.030;2024-03-29T12:40:49;17.30;99.90
16283;DHT22;8249;48.708;9.030;2024-03-29T12:43:20;17.50;99.90
16283;DHT22;8249;48.708;9.030;2024-03-29T12:45:48;18.20;99.90
16283;DHT22;8249;48.708;9.030;2024-03-29T12:48:17;18.80;99.90
16283;DHT22;8249;48.708;9.030;2024-03-29T12:50:47;19.00;99.90
16283;DHT22;8249;48.708;9.030;2024-03-29T12:53:15;18.90;99.90
16283;DHT22;8249;48.708;9.030;2024-03-29T12:55:43;18.50;99.90
16283;DHT22;8249;48.708;9.030;2024-03-29T12:58:11;18.20;99.90
16283;DHT22;8249;48.708;9.030;2024-03-29T13:00:39;18.50;99.90
16283;DHT22;8249;48.708;9.030;2024-03-29T13:03:06;18.90;99.90
16283;DHT22;8249;48.708;9.030;2024-03-29T13:05:38;18.90;99.90
16283;DHT22;8249;48.708;9.030;2024-03-29T13:08:10;19.70;99.90
16283;DHT22;8249;48.708;9.030;2024-03-29T13:10:37;21.20;99.90
16283;DHT22;8249;48.708;9.030;2024-03-29T13:13:05;22.50;99.90
16283;DHT22;8249;48.708;9.030;2024-03-29T13:15:33;23.70;98.80
16283;DHT22;8249;48.708;9.030;2024-03-29T13:18:02;24.60;95.50
16283;DHT22;8249;48.708;9.030;2024-03-29T13:20:30;25.60;93.10
16283;DHT22;8249;48.708;9.030;2024-03-29T13:22:58;26.00;91.40
16283;DHT22;8249;48.708;9.030;2024-03-29T13:25:26;26.80;90.10
16283;DHT22;8249;48.708;9.030;2024-03-29T13:27:54;27.40;84.70
16283;DHT22;8249;48.708;9.030;2024-03-29T13:30:23;27.90;80.10
16283;DHT22;8249;48.708;9.030;2024-03-29T13:32:50;27.70;77.10
16283;DHT22;8249;48.708;9.030;2024-03-29T13:35:18;27.70;75.50
16283;DHT22;8249;48.708;9.030;2024-03-29T13:37:49;27.70;73.10
16283;DHT22;8249;48.708;9.030;2024-03-29T13:40:17;27.40;72.10
16283;DHT22;8249;48.708;9.030;2024-03-29T13:42:45;27.20;72.80
16283;DHT22;8249;48.708;9.030;2024-03-29T13:45:14;26.90;72.90
16283;DHT22;8249;48.708;9.030;2024-03-29T13:47:43;26.90;71.50
16283;DHT22;8249;48.708;9.030;2024-03-29T13:50:11;27.20;72.30
16283;DHT22;8249;48.708;9.030;2024-03-29T13:52:41;27.40;73.50
16283;DHT22;8249;48.708;9.030;2024-03-29T13:55:08;28.00;73.30
16283;DHT22;8249;48.708;9.030;2024-03-29T13:57:36;28.10;72.70
16283;DHT22;8249;48.708;9.030;2024-03-29T14:00:06;28.30;71.10
16283;DHT22;8249;48.708;9.030;2024-03-29T14:02:33;28.10;71.10
16283;DHT22;8249;48.708;9.030;2024-03-29T14:05:00;27.90;70.90
16283;DHT22;8249;48.708;9.030;2024-03-29T14:07:27;27.70;72.40
16283;DHT22;8249;48.708;9.030;2024-03-29T14:09:54;27.80;72.30
16283;DHT22;8249;48.708;9.030;2024-03-29T14:12:21;27.60;72.70
16283;DHT22;8249;48.708;9.030;2024-03-29T14:14:50;27.30;72.50
16283;DHT22;8249;48.708;9.030;2024-03-29T14:17:20;27.20;73.50
16283;DHT22;8249;48.708;9.030;2024-03-29T14:19:47;27.30;72.80
16283;DHT22;8249;48.708;9.030;2024-03-29T14:22:14;27.50;70.80
16283;DHT22;8249;48.708;9.030;2024-03-29T14:24:44;27.30;70.50
16283;DHT22;8249;48.708;9.030;2024-03-29T14:27:11;26.90;70.30
16283;DHT22;8249;48.708;9.030;2024-03-29T14:29:38;26.90;71.40
16283;DHT22;8249;48.708;9.030;2024-03-29T14:32:05;26.90;73.00
16283;DHT22;8249;48.708;9.030;2024-03-29T14:34:33;26.50;72.20
16283;DHT22;8249;48.708;9.030;2024-03-29T14:37:04;26.30;72.10
16283;DHT22;8249;48.708;9.030;2024-03-29T14:39:31;26.80;72.20
16283;DHT22;8249;48.708;9.030;2024-03-29T14:41:58;27.00;71.70
16283;DHT22;8249;48.708;9.030;2024-03-29T14:44:27;26.80;72.80
16283;DHT22;8249;48.708;9.030;2024-03-29T14:46:55;26.80;72.70
16283;DHT22;8249;48.708;9.030;2024-03-29T14:49:21;26.80;72.30
16283;DHT22;8249;48.708;9.030;2024-03-29T14:51:50;27.00;72.50
16283;DHT22;8249;48.708;9.030;2024-03-29T14:54:16;26.40;72.40
16283;DHT22;8249;48.708;9.030;2024-03-29T14:56:43;25.80;73.30
16283;DHT22;8249;48.708;9.030;2024-03-29T14:59:11;25.10;72.90
16283;DHT22;8249;48.708;9.030;2024-03-29T15:01:38;24.50;74.40
16283;DHT22;8249;48.708;9.030;2024-03-29T15:04:04;24.50;75.40
16283;DHT22;8249;48.708;9.030;2024-03-29T15:06:31;24.40;74.90
16283;DHT22;8249;48.708;9.030;2024-03-29T15:09:00;24.20;77.40
16283;DHT22;8249;48.708;9.030;2024-03-29T15:11:27;23.90;77.80
16283;DHT22;8249;48.708;9.030;2024-03-29T15:13:54;23.30;80.70
16283;DHT22;8249;48.708;9.030;2024-03-29T15:16:21;22.60;82.20
16283;DHT22;8249;48.708;9.030;2024-03-29T15:18:53;22.20;83.50
16283;DHT22;8249;48.708;9.030;2024-03-29T15:21:22;22.00;85.20
16283;DHT22;8249;48.708;9.030;2024-03-29T15:23:49;21.90;85.20
16283;DHT22;8249;48.708;9.030;2024-03-29T15:26:17;21.80;85.60
16283;DHT22;8249;48.708;9.030;2024-03-29T15:28:45;21.80;86.20
16283;DHT22;8249;48.708;9.030;2024-03-29T15:31:34;22.00;86.40
16283;DHT22;8249;48.708;9.030;2024-03-29T15:34:01;21.90;85.50
16283;DHT22;8249;48.708;9.030;2024-03-29T15:36:29;21.60;86.60
16283;DHT22;8249;48.708;9.030;2024-03-29T15:38:56;21.40;87.60
16283;DHT22;8249;48.708;9.030;2024-03-29T15:41:32;21.10;87.50
16283;DHT22;8249;48.708;9.030;2024-03-29T15:43:59;20.70;90.00
16283;DHT22;8249;48.708;9.030;2024-03-29T15:46:27;20.40;90.40
16283;DHT22;8249;48.708;9.030;2024-03-29T15:48:54;20.10;90.90
16283;DHT22;8249;48.708;9.030;2024-03-29T15:51:21;20.10;90.30
16283;DHT22;8249;48.708;9.030;2024-03-29T15:53:48;19.80;90.50
16283;DHT22;8249;48.708;9.030;2024-03-29T15:56:15;19.70;91.10
16283;DHT22;8249;48.708;9.030;2024-03-29T15:58:44;19.60;91.30